Kezdőlap
METAR-TAF:

METAR-TAF

Repülőterek :

Aktau, Kazahsztán

földrajzi szélesség: 43-52-12N, földrajzi hosszúság: 051-06E, magasság: 22 m

Jelenlegi meteorológiai megfigyelések

A jelentés 36 perccel ezelõtt készült, 13:00 UTC
Délkeleti szél 8 kt
Hőmérséklet 17°C
Páratartalom 29%
Légköri nyomás 1015 hPa
Látótávolság 10 km, vagy több
felhőtlen 1500 m magasságban, és nincs gomolyfelhõ

METAR: UATE 311300Z 14004MPS CAVOK 17/M01 Q1015 R12/0///70 NOSIG RMK QFE759/1013

Idő: 18:36 (13:36 UTC)

Előrejelzés

A jelentés 2 órával és 36 perccel ezelõtt készült, 11:00 UTC
Az előrejelzés 31-én 12 óra UTC és 01-én 12 óra UTC között érvényes
Kelet-délkeleti szél 12 kt széllökések: 23 kt
Látótávolság 10 km, vagy több
Szórványos felhőzet 4000 lábon
31-én 15 óra UTC és 31-én 17 óra UTC között fokozatosan kialakuló
Keleti szél 10 kt

TAF: UATE 311100Z 3112/0112 12006G12MPS 9999 SCT040 TX19/3110Z TN05/0102Z BECMG 3115/3117 09005MPS

Meteorológiai megfigyelések és előrejelzések több, mint 4000 repülőtéren (METAR és TAF jelentéseket).

A térképen piros és sárga pontok jelzik az elérhető meteorológiai állomásokat.

Mozgassa az egeret a pont fölött, hogy megjelenjen az állomás neve.

Azután kattintson az időjárási megfigyelések és előrejelzések megtekintéséhez.

A térkép megváltoztatása: kattintson a fekete keresztel jelölt zöld gombra ráközelítéshez, a vonallal jelölt zöld gombra távolításhoz, vagy a zöld nyilakra a szomszédos térképek eléréséhez.


METAR-TAF: